sensor_id;sensor_type;location;lat;lon;timestamp;P1;durP1;ratioP1;P2;durP2;ratioP2
46507;SDS011;32223;53.654;10.014;2023-03-01T00:00:18;11.23;;;4.25;;
46507;SDS011;32223;53.654;10.014;2023-03-01T00:02:44;13.68;;;4.72;;
46507;SDS011;32223;53.654;10.014;2023-03-01T00:05:10;8.30;;;4.63;;
46507;SDS011;32223;53.654;10.014;2023-03-01T00:07:36;9.80;;;5.10;;
46507;SDS011;32223;53.654;10.014;2023-03-01T00:10:01;8.48;;;4.40;;
46507;SDS011;32223;53.654;10.014;2023-03-01T00:12:27;10.13;;;5.63;;
46507;SDS011;32223;53.654;10.014;2023-03-01T00:14:53;8.48;;;4.80;;
46507;SDS011;32223;53.654;10.014;2023-03-01T00:17:18;10.50;;;5.90;;
46507;SDS011;32223;53.654;10.014;2023-03-01T00:19:44;8.95;;;5.05;;
46507;SDS011;32223;53.654;10.014;2023-03-01T00:22:09;7.63;;;4.15;;
46507;SDS011;32223;53.654;10.014;2023-03-01T00:24:35;9.43;;;4.25;;
46507;SDS011;32223;53.654;10.014;2023-03-01T00:27:01;17.13;;;5.13;;
46507;SDS011;32223;53.654;10.014;2023-03-01T00:29:26;10.10;;;3.58;;
46507;SDS011;32223;53.654;10.014;2023-03-01T00:31:52;10.38;;;4.45;;
46507;SDS011;32223;53.654;10.014;2023-03-01T00:34:17;9.68;;;3.88;;
46507;SDS011;32223;53.654;10.014;2023-03-01T00:36:43;7.55;;;3.75;;
46507;SDS011;32223;53.654;10.014;2023-03-01T00:39:10;6.88;;;3.75;;
46507;SDS011;32223;53.654;10.014;2023-03-01T00:41:37;7.85;;;4.25;;
46507;SDS011;32223;53.654;10.014;2023-03-01T00:44:04;11.88;;;5.20;;
46507;SDS011;32223;53.654;10.014;2023-03-01T00:46:30;8.13;;;3.85;;
46507;SDS011;32223;53.654;10.014;2023-03-01T00:48:56;9.13;;;4.35;;
46507;SDS011;32223;53.654;10.014;2023-03-01T00:51:23;8.60;;;4.22;;
46507;SDS011;32223;53.654;10.014;2023-03-01T00:53:52;8.88;;;4.47;;
46507;SDS011;32223;53.654;10.014;2023-03-01T00:56:19;7.88;;;4.22;;
46507;SDS011;32223;53.654;10.014;2023-03-01T00:58:45;9.50;;;4.70;;
46507;SDS011;32223;53.654;10.014;2023-03-01T01:01:12;8.57;;;4.60;;
46507;SDS011;32223;53.654;10.014;2023-03-01T01:04:03;9.45;;;4.97;;
46507;SDS011;32223;53.654;10.014;2023-03-01T01:06:49;12.43;;;5.13;;
46507;SDS011;32223;53.654;10.014;2023-03-01T01:09:16;8.73;;;4.55;;
46507;SDS011;32223;53.654;10.014;2023-03-01T01:11:51;9.73;;;4.25;;
46507;SDS011;32223;53.654;10.014;2023-03-01T01:14:17;9.77;;;5.20;;
46507;SDS011;32223;53.654;10.014;2023-03-01T01:16:43;10.30;;;5.50;;
46507;SDS011;32223;53.654;10.014;2023-03-01T01:19:10;14.65;;;6.97;;
46507;SDS011;32223;53.654;10.014;2023-03-01T01:21:36;13.13;;;6.07;;
46507;SDS011;32223;53.654;10.014;2023-03-01T01:24:03;12.63;;;5.38;;
46507;SDS011;32223;53.654;10.014;2023-03-01T01:26:30;7.40;;;3.90;;
46507;SDS011;32223;53.654;10.014;2023-03-01T01:28:57;7.88;;;3.33;;
46507;SDS011;32223;53.654;10.014;2023-03-01T01:31:24;8.25;;;3.58;;
46507;SDS011;32223;53.654;10.014;2023-03-01T01:33:51;5.30;;;3.40;;
46507;SDS011;32223;53.654;10.014;2023-03-01T01:36:17;6.82;;;3.50;;
46507;SDS011;32223;53.654;10.014;2023-03-01T01:38:43;6.35;;;4.32;;
46507;SDS011;32223;53.654;10.014;2023-03-01T01:41:09;6.70;;;3.45;;
46507;SDS011;32223;53.654;10.014;2023-03-01T01:43:44;7.32;;;3.92;;
46507;SDS011;32223;53.654;10.014;2023-03-01T01:46:34;7.10;;;3.70;;
46507;SDS011;32223;53.654;10.014;2023-03-01T01:49:05;8.07;;;5.15;;
46507;SDS011;32223;53.654;10.014;2023-03-01T01:51:37;9.40;;;3.92;;
46507;SDS011;32223;53.654;10.014;2023-03-01T01:54:08;7.28;;;3.80;;
46507;SDS011;32223;53.654;10.014;2023-03-01T01:56:38;9.90;;;4.47;;
46507;SDS011;32223;53.654;10.014;2023-03-01T01:59:07;8.05;;;4.25;;
46507;SDS011;32223;53.654;10.014;2023-03-01T02:01:33;7.78;;;4.50;;
46507;SDS011;32223;53.654;10.014;2023-03-01T02:03:59;7.10;;;3.72;;
46507;SDS011;32223;53.654;10.014;2023-03-01T02:09:00;9.80;;;4.32;;
46507;SDS011;32223;53.654;10.014;2023-03-01T02:13:57;11.70;;;4.35;;
46507;SDS011;32223;53.654;10.014;2023-03-01T02:16:23;9.13;;;4.00;;
46507;SDS011;32223;53.654;10.014;2023-03-01T02:18:50;9.30;;;4.97;;
46507;SDS011;32223;53.654;10.014;2023-03-01T02:23:44;8.65;;;4.63;;
46507;SDS011;32223;53.654;10.014;2023-03-01T02:26:20;9.50;;;4.80;;
46507;SDS011;32223;53.654;10.014;2023-03-01T02:28:50;9.23;;;4.65;;
46507;SDS011;32223;53.654;10.014;2023-03-01T02:31:17;10.80;;;5.57;;
46507;SDS011;32223;53.654;10.014;2023-03-01T02:34:03;10.90;;;5.47;;
46507;SDS011;32223;53.654;10.014;2023-03-01T02:36:31;10.20;;;5.28;;
46507;SDS011;32223;53.654;10.014;2023-03-01T02:39:05;9.48;;;4.40;;
46507;SDS011;32223;53.654;10.014;2023-03-01T02:41:39;6.07;;;3.57;;
46507;SDS011;32223;53.654;10.014;2023-03-01T02:44:07;7.85;;;3.65;;
46507;SDS011;32223;53.654;10.014;2023-03-01T02:46:34;6.57;;;4.18;;
46507;SDS011;32223;53.654;10.014;2023-03-01T02:49:18;8.23;;;4.72;;
46507;SDS011;32223;53.654;10.014;2023-03-01T02:54:51;7.90;;;4.50;;
46507;SDS011;32223;53.654;10.014;2023-03-01T02:57:23;7.38;;;4.05;;
46507;SDS011;32223;53.654;10.014;2023-03-01T02:59:52;5.47;;;3.08;;
46507;SDS011;32223;53.654;10.014;2023-03-01T03:02:21;5.82;;;2.83;;
46507;SDS011;32223;53.654;10.014;2023-03-01T03:05:43;6.82;;;2.50;;
46507;SDS011;32223;53.654;10.014;2023-03-01T03:07:51;8.27;;;2.92;;
46507;SDS011;32223;53.654;10.014;2023-03-01T03:10:37;4.75;;;2.60;;
46507;SDS011;32223;53.654;10.014;2023-03-01T03:13:11;5.75;;;3.33;;
46507;SDS011;32223;53.654;10.014;2023-03-01T03:15:39;5.82;;;3.20;;
46507;SDS011;32223;53.654;10.014;2023-03-01T03:18:07;4.95;;;2.80;;
46507;SDS011;32223;53.654;10.014;2023-03-01T03:20:35;5.15;;;2.97;;
46507;SDS011;32223;53.654;10.014;2023-03-01T03:23:02;5.30;;;2.50;;
46507;SDS011;32223;53.654;10.014;2023-03-01T03:25:29;6.28;;;2.92;;
46507;SDS011;32223;53.654;10.014;2023-03-01T03:27:55;7.47;;;3.78;;
46507;SDS011;32223;53.654;10.014;2023-03-01T03:30:22;4.78;;;2.78;;
46507;SDS011;32223;53.654;10.014;2023-03-01T03:32:49;8.00;;;3.15;;
46507;SDS011;32223;53.654;10.014;2023-03-01T03:35:40;5.15;;;2.63;;
46507;SDS011;32223;53.654;10.014;2023-03-01T03:38:07;5.50;;;3.15;;
46507;SDS011;32223;53.654;10.014;2023-03-01T03:40:40;5.20;;;2.92;;
46507;SDS011;32223;53.654;10.014;2023-03-01T03:43:08;6.70;;;3.20;;
46507;SDS011;32223;53.654;10.014;2023-03-01T03:45:36;8.18;;;3.65;;
46507;SDS011;32223;53.654;10.014;2023-03-01T03:48:02;8.75;;;4.13;;
46507;SDS011;32223;53.654;10.014;2023-03-01T03:50:29;9.23;;;4.90;;
46507;SDS011;32223;53.654;10.014;2023-03-01T03:52:55;8.20;;;4.53;;
46507;SDS011;32223;53.654;10.014;2023-03-01T03:55:21;8.18;;;3.92;;
46507;SDS011;32223;53.654;10.014;2023-03-01T03:57:47;8.48;;;4.50;;
46507;SDS011;32223;53.654;10.014;2023-03-01T04:00:20;6.70;;;3.95;;
46507;SDS011;32223;53.654;10.014;2023-03-01T04:02:48;7.68;;;4.03;;
46507;SDS011;32223;53.654;10.014;2023-03-01T04:05:16;7.53;;;3.47;;
46507;SDS011;32223;53.654;10.014;2023-03-01T04:07:42;8.00;;;4.25;;
46507;SDS011;32223;53.654;10.014;2023-03-01T04:10:10;7.07;;;3.47;;
46507;SDS011;32223;53.654;10.014;2023-03-01T04:12:37;7.47;;;3.60;;
46507;SDS011;32223;53.654;10.014;2023-03-01T04:15:04;8.23;;;4.50;;
46507;SDS011;32223;53.654;10.014;2023-03-01T04:17:41;8.50;;;3.60;;
46507;SDS011;32223;53.654;10.014;2023-03-01T04:20:09;7.90;;;2.92;;
46507;SDS011;32223;53.654;10.014;2023-03-01T04:22:39;6.13;;;3.25;;
46507;SDS011;32223;53.654;10.014;2023-03-01T04:25:05;6.78;;;3.63;;
46507;SDS011;32223;53.654;10.014;2023-03-01T04:27:35;6.80;;;3.63;;
46507;SDS011;32223;53.654;10.014;2023-03-01T04:30:01;6.32;;;3.42;;
46507;SDS011;32223;53.654;10.014;2023-03-01T04:32:28;6.78;;;3.45;;
46507;SDS011;32223;53.654;10.014;2023-03-01T04:34:54;7.60;;;4.18;;
46507;SDS011;32223;53.654;10.014;2023-03-01T04:37:20;8.02;;;3.70;;
46507;SDS011;32223;53.654;10.014;2023-03-01T04:39:45;10.50;;;3.40;;
46507;SDS011;32223;53.654;10.014;2023-03-01T04:42:12;6.43;;;3.63;;
46507;SDS011;32223;53.654;10.014;2023-03-01T04:44:38;7.05;;;3.30;;
46507;SDS011;32223;53.654;10.014;2023-03-01T04:47:04;8.40;;;2.90;;
46507;SDS011;32223;53.654;10.014;2023-03-01T04:49:29;6.40;;;3.35;;
46507;SDS011;32223;53.654;10.014;2023-03-01T04:51:55;8.95;;;4.20;;
46507;SDS011;32223;53.654;10.014;2023-03-01T04:54:23;7.10;;;3.67;;
46507;SDS011;32223;53.654;10.014;2023-03-01T04:56:48;8.02;;;3.30;;
46507;SDS011;32223;53.654;10.014;2023-03-01T04:59:14;6.97;;;4.22;;
46507;SDS011;32223;53.654;10.014;2023-03-01T05:01:40;8.98;;;4.53;;
46507;SDS011;32223;53.654;10.014;2023-03-01T05:04:07;13.45;;;6.13;;
46507;SDS011;32223;53.654;10.014;2023-03-01T05:06:38;12.02;;;6.18;;
46507;SDS011;32223;53.654;10.014;2023-03-01T05:09:04;11.00;;;5.22;;
46507;SDS011;32223;53.654;10.014;2023-03-01T05:11:30;29.85;;;14.02;;
46507;SDS011;32223;53.654;10.014;2023-03-01T05:14:00;28.85;;;15.23;;
46507;SDS011;32223;53.654;10.014;2023-03-01T05:16:27;18.88;;;10.45;;
46507;SDS011;32223;53.654;10.014;2023-03-01T05:18:53;19.05;;;8.88;;
46507;SDS011;32223;53.654;10.014;2023-03-01T05:21:20;10.05;;;4.95;;
46507;SDS011;32223;53.654;10.014;2023-03-01T05:23:46;9.25;;;4.05;;
46507;SDS011;32223;53.654;10.014;2023-03-01T05:26:12;8.50;;;3.92;;
46507;SDS011;32223;53.654;10.014;2023-03-01T05:28:37;7.25;;;4.10;;
46507;SDS011;32223;53.654;10.014;2023-03-01T05:31:04;6.55;;;3.83;;
46507;SDS011;32223;53.654;10.014;2023-03-01T05:33:35;4.88;;;3.20;;
46507;SDS011;32223;53.654;10.014;2023-03-01T05:36:01;6.03;;;3.22;;
46507;SDS011;32223;53.654;10.014;2023-03-01T05:38:27;5.05;;;3.13;;
46507;SDS011;32223;53.654;10.014;2023-03-01T05:40:53;6.25;;;3.33;;
46507;SDS011;32223;53.654;10.014;2023-03-01T05:43:18;6.45;;;3.50;;
46507;SDS011;32223;53.654;10.014;2023-03-01T05:45:44;8.68;;;4.63;;
46507;SDS011;32223;53.654;10.014;2023-03-01T05:48:10;6.93;;;4.13;;
46507;SDS011;32223;53.654;10.014;2023-03-01T05:50:39;7.05;;;4.03;;
46507;SDS011;32223;53.654;10.014;2023-03-01T05:53:08;8.68;;;3.97;;
46507;SDS011;32223;53.654;10.014;2023-03-01T05:55:42;10.85;;;4.20;;
46507;SDS011;32223;53.654;10.014;2023-03-01T05:58:12;7.25;;;3.75;;
46507;SDS011;32223;53.654;10.014;2023-03-01T06:00:40;11.05;;;5.03;;
46507;SDS011;32223;53.654;10.014;2023-03-01T06:03:06;13.10;;;6.70;;
46507;SDS011;32223;53.654;10.014;2023-03-01T06:05:34;12.38;;;5.10;;
46507;SDS011;32223;53.654;10.014;2023-03-01T06:08:00;10.23;;;5.45;;
46507;SDS011;32223;53.654;10.014;2023-03-01T06:10:26;9.75;;;5.82;;
46507;SDS011;32223;53.654;10.014;2023-03-01T06:12:52;11.85;;;6.30;;
46507;SDS011;32223;53.654;10.014;2023-03-01T06:15:18;12.15;;;6.55;;
46507;SDS011;32223;53.654;10.014;2023-03-01T06:17:44;11.43;;;5.80;;
46507;SDS011;32223;53.654;10.014;2023-03-01T06:20:15;11.77;;;5.85;;
46507;SDS011;32223;53.654;10.014;2023-03-01T06:22:43;7.72;;;4.25;;
46507;SDS011;32223;53.654;10.014;2023-03-01T06:25:09;8.85;;;4.50;;
46507;SDS011;32223;53.654;10.014;2023-03-01T06:27:37;12.57;;;5.38;;
46507;SDS011;32223;53.654;10.014;2023-03-01T06:30:03;9.90;;;5.03;;
46507;SDS011;32223;53.654;10.014;2023-03-01T06:32:29;13.77;;;6.25;;
46507;SDS011;32223;53.654;10.014;2023-03-01T06:34:56;9.90;;;5.13;;
46507;SDS011;32223;53.654;10.014;2023-03-01T06:37:23;11.57;;;5.30;;
46507;SDS011;32223;53.654;10.014;2023-03-01T06:39:49;8.55;;;4.80;;
46507;SDS011;32223;53.654;10.014;2023-03-01T06:42:15;11.75;;;5.10;;
46507;SDS011;32223;53.654;10.014;2023-03-01T06:44:40;8.98;;;4.47;;
46507;SDS011;32223;53.654;10.014;2023-03-01T06:47:06;13.05;;;5.35;;
46507;SDS011;32223;53.654;10.014;2023-03-01T06:49:31;9.32;;;4.55;;
46507;SDS011;32223;53.654;10.014;2023-03-01T06:51:57;11.80;;;5.43;;
46507;SDS011;32223;53.654;10.014;2023-03-01T06:54:22;8.00;;;4.30;;
46507;SDS011;32223;53.654;10.014;2023-03-01T06:56:49;6.75;;;4.22;;
46507;SDS011;32223;53.654;10.014;2023-03-01T06:59:15;10.88;;;4.28;;
46507;SDS011;32223;53.654;10.014;2023-03-01T07:01:41;7.40;;;4.13;;
46507;SDS011;32223;53.654;10.014;2023-03-01T07:04:07;8.35;;;4.35;;
46507;SDS011;32223;53.654;10.014;2023-03-01T07:06:33;6.38;;;3.63;;
46507;SDS011;32223;53.654;10.014;2023-03-01T07:08:58;11.40;;;3.85;;
46507;SDS011;32223;53.654;10.014;2023-03-01T07:11:24;9.45;;;4.85;;
46507;SDS011;32223;53.654;10.014;2023-03-01T07:13:49;9.45;;;4.57;;
46507;SDS011;32223;53.654;10.014;2023-03-01T07:16:15;9.60;;;4.28;;
46507;SDS011;32223;53.654;10.014;2023-03-01T07:18:41;8.07;;;4.38;;
46507;SDS011;32223;53.654;10.014;2023-03-01T07:21:07;10.80;;;4.55;;
46507;SDS011;32223;53.654;10.014;2023-03-01T07:23:34;13.75;;;5.55;;
46507;SDS011;32223;53.654;10.014;2023-03-01T07:26:00;13.70;;;5.72;;
46507;SDS011;32223;53.654;10.014;2023-03-01T07:28:26;11.73;;;5.93;;
46507;SDS011;32223;53.654;10.014;2023-03-01T07:30:52;14.73;;;6.03;;
46507;SDS011;32223;53.654;10.014;2023-03-01T07:33:18;13.00;;;6.47;;
46507;SDS011;32223;53.654;10.014;2023-03-01T07:35:44;9.82;;;4.80;;
46507;SDS011;32223;53.654;10.014;2023-03-01T07:38:10;11.88;;;4.68;;
46507;SDS011;32223;53.654;10.014;2023-03-01T07:40:35;8.90;;;4.68;;
46507;SDS011;32223;53.654;10.014;2023-03-01T07:43:01;9.35;;;4.88;;
46507;SDS011;32223;53.654;10.014;2023-03-01T07:45:27;10.20;;;5.22;;
46507;SDS011;32223;53.654;10.014;2023-03-01T07:47:53;11.48;;;5.25;;
46507;SDS011;32223;53.654;10.014;2023-03-01T07:50:20;12.10;;;5.50;;
46507;SDS011;32223;53.654;10.014;2023-03-01T07:52:47;11.75;;;5.55;;
46507;SDS011;32223;53.654;10.014;2023-03-01T07:55:13;13.27;;;5.90;;
46507;SDS011;32223;53.654;10.014;2023-03-01T07:57:39;12.43;;;5.75;;
46507;SDS011;32223;53.654;10.014;2023-03-01T08:00:06;10.98;;;5.53;;
46507;SDS011;32223;53.654;10.014;2023-03-01T08:02:32;11.85;;;6.78;;
46507;SDS011;32223;53.654;10.014;2023-03-01T08:04:58;11.63;;;6.13;;
46507;SDS011;32223;53.654;10.014;2023-03-01T08:07:24;13.45;;;6.68;;
46507;SDS011;32223;53.654;10.014;2023-03-01T08:09:49;10.25;;;6.10;;
46507;SDS011;32223;53.654;10.014;2023-03-01T08:12:15;13.98;;;6.40;;
46507;SDS011;32223;53.654;10.014;2023-03-01T08:14:43;10.15;;;6.20;;
46507;SDS011;32223;53.654;10.014;2023-03-01T08:17:09;16.83;;;7.38;;
46507;SDS011;32223;53.654;10.014;2023-03-01T08:19:35;10.80;;;6.60;;
46507;SDS011;32223;53.654;10.014;2023-03-01T08:22:03;14.43;;;7.45;;
46507;SDS011;32223;53.654;10.014;2023-03-01T08:24:29;11.73;;;6.43;;
46507;SDS011;32223;53.654;10.014;2023-03-01T08:26:54;13.68;;;7.20;;
46507;SDS011;32223;53.654;10.014;2023-03-01T08:29:20;13.60;;;7.70;;
46507;SDS011;32223;53.654;10.014;2023-03-01T08:31:48;13.60;;;7.00;;
46507;SDS011;32223;53.654;10.014;2023-03-01T08:34:14;14.10;;;7.78;;
46507;SDS011;32223;53.654;10.014;2023-03-01T08:36:42;13.70;;;8.63;;
46507;SDS011;32223;53.654;10.014;2023-03-01T08:39:11;11.13;;;7.18;;
46507;SDS011;32223;53.654;10.014;2023-03-01T08:41:38;11.48;;;7.05;;
46507;SDS011;32223;53.654;10.014;2023-03-01T08:44:04;14.50;;;8.05;;
46507;SDS011;32223;53.654;10.014;2023-03-01T08:46:35;14.65;;;8.10;;
46507;SDS011;32223;53.654;10.014;2023-03-01T08:49:03;10.05;;;5.82;;
46507;SDS011;32223;53.654;10.014;2023-03-01T08:51:33;11.93;;;6.75;;
46507;SDS011;32223;53.654;10.014;2023-03-01T08:54:04;11.68;;;7.07;;
46507;SDS011;32223;53.654;10.014;2023-03-01T08:56:31;12.43;;;7.05;;
46507;SDS011;32223;53.654;10.014;2023-03-01T08:58:58;11.82;;;7.25;;
46507;SDS011;32223;53.654;10.014;2023-03-01T09:01:23;12.27;;;6.90;;
46507;SDS011;32223;53.654;10.014;2023-03-01T09:03:49;13.23;;;7.38;;
46507;SDS011;32223;53.654;10.014;2023-03-01T09:06:15;12.38;;;6.70;;
46507;SDS011;32223;53.654;10.014;2023-03-01T09:08:42;12.27;;;7.50;;
46507;SDS011;32223;53.654;10.014;2023-03-01T09:11:13;11.55;;;7.90;;
46507;SDS011;32223;53.654;10.014;2023-03-01T09:13:41;16.23;;;7.93;;
46507;SDS011;32223;53.654;10.014;2023-03-01T09:16:08;15.18;;;8.18;;
46507;SDS011;32223;53.654;10.014;2023-03-01T09:18:34;14.73;;;7.85;;
46507;SDS011;32223;53.654;10.014;2023-03-01T09:21:02;13.25;;;8.15;;
46507;SDS011;32223;53.654;10.014;2023-03-01T09:23:35;16.08;;;8.07;;
46507;SDS011;32223;53.654;10.014;2023-03-01T09:26:01;16.05;;;8.13;;
46507;SDS011;32223;53.654;10.014;2023-03-01T09:28:27;15.52;;;8.13;;
46507;SDS011;32223;53.654;10.014;2023-03-01T09:30:53;15.15;;;7.85;;
46507;SDS011;32223;53.654;10.014;2023-03-01T09:33:22;15.77;;;8.25;;
46507;SDS011;32223;53.654;10.014;2023-03-01T09:35:47;15.30;;;8.13;;
46507;SDS011;32223;53.654;10.014;2023-03-01T09:38:13;14.77;;;8.45;;
46507;SDS011;32223;53.654;10.014;2023-03-01T09:40:42;14.18;;;7.95;;
46507;SDS011;32223;53.654;10.014;2023-03-01T09:45:55;14.32;;;7.65;;
46507;SDS011;32223;53.654;10.014;2023-03-01T09:48:26;18.77;;;8.50;;
46507;SDS011;32223;53.654;10.014;2023-03-01T09:50:55;14.68;;;8.35;;
46507;SDS011;32223;53.654;10.014;2023-03-01T09:53:23;14.02;;;8.02;;
46507;SDS011;32223;53.654;10.014;2023-03-01T09:56:05;11.83;;;7.87;;
46507;SDS011;32223;53.654;10.014;2023-03-01T10:01:34;14.07;;;7.35;;
46507;SDS011;32223;53.654;10.014;2023-03-01T10:04:26;13.55;;;8.05;;
46507;SDS011;32223;53.654;10.014;2023-03-01T10:09:38;13.38;;;7.75;;
46507;SDS011;32223;53.654;10.014;2023-03-01T10:12:10;12.73;;;7.35;;
46507;SDS011;32223;53.654;10.014;2023-03-01T10:17:39;9.90;;;6.25;;
46507;SDS011;32223;53.654;10.014;2023-03-01T10:22:45;12.65;;;6.70;;
46507;SDS011;32223;53.654;10.014;2023-03-01T10:25:15;10.93;;;7.00;;
46507;SDS011;32223;53.654;10.014;2023-03-01T10:27:54;12.98;;;7.53;;
46507;SDS011;32223;53.654;10.014;2023-03-01T10:30:35;13.68;;;6.95;;
46507;SDS011;32223;53.654;10.014;2023-03-01T10:33:08;10.70;;;6.03;;
46507;SDS011;32223;53.654;10.014;2023-03-01T10:35:49;10.75;;;6.50;;
46507;SDS011;32223;53.654;10.014;2023-03-01T10:38:16;13.57;;;6.95;;
46507;SDS011;32223;53.654;10.014;2023-03-01T10:40:50;12.07;;;6.82;;
46507;SDS011;32223;53.654;10.014;2023-03-01T10:43:18;14.82;;;7.15;;
46507;SDS011;32223;53.654;10.014;2023-03-01T10:45:44;13.05;;;7.20;;
46507;SDS011;32223;53.654;10.014;2023-03-01T10:50:45;13.57;;;7.70;;
46507;SDS011;32223;53.654;10.014;2023-03-01T10:53:54;10.63;;;6.55;;
46507;SDS011;32223;53.654;10.014;2023-03-01T10:56:09;9.63;;;5.95;;
46507;SDS011;32223;53.654;10.014;2023-03-01T10:58:39;11.43;;;5.85;;
46507;SDS011;32223;53.654;10.014;2023-03-01T11:01:29;11.10;;;6.05;;
46507;SDS011;32223;53.654;10.014;2023-03-01T11:06:28;11.93;;;6.40;;
46507;SDS011;32223;53.654;10.014;2023-03-01T11:08:54;11.80;;;6.07;;
46507;SDS011;32223;53.654;10.014;2023-03-01T11:11:21;10.85;;;6.05;;
46507;SDS011;32223;53.654;10.014;2023-03-01T11:13:57;10.20;;;4.82;;
46507;SDS011;32223;53.654;10.014;2023-03-01T11:16:38;8.73;;;5.35;;
46507;SDS011;32223;53.654;10.014;2023-03-01T11:21:41;10.82;;;5.15;;
46507;SDS011;32223;53.654;10.014;2023-03-01T11:24:16;9.32;;;4.82;;
46507;SDS011;32223;53.654;10.014;2023-03-01T11:26:45;8.32;;;5.28;;
46507;SDS011;32223;53.654;10.014;2023-03-01T11:32:06;8.73;;;5.15;;
46507;SDS011;32223;53.654;10.014;2023-03-01T11:40:13;9.57;;;4.57;;
46507;SDS011;32223;53.654;10.014;2023-03-01T11:42:48;9.25;;;4.47;;
46507;SDS011;32223;53.654;10.014;2023-03-01T11:45:18;8.70;;;4.18;;
46507;SDS011;32223;53.654;10.014;2023-03-01T11:47:54;7.72;;;4.57;;
46507;SDS011;32223;53.654;10.014;2023-03-01T11:50:34;11.40;;;5.43;;
46507;SDS011;32223;53.654;10.014;2023-03-01T11:58:30;6.47;;;3.83;;
46507;SDS011;32223;53.654;10.014;2023-03-01T12:01:24;11.77;;;3.72;;
46507;SDS011;32223;53.654;10.014;2023-03-01T12:04:07;7.10;;;4.00;;
46507;SDS011;32223;53.654;10.014;2023-03-01T12:09:27;5.18;;;3.58;;
46507;SDS011;32223;53.654;10.014;2023-03-01T12:17:38;5.80;;;3.85;;
46507;SDS011;32223;53.654;10.014;2023-03-01T12:26:06;7.38;;;3.55;;
46507;SDS011;32223;53.654;10.014;2023-03-01T12:28:55;7.25;;;3.80;;
46507;SDS011;32223;53.654;10.014;2023-03-01T12:31:44;6.68;;;4.15;;
46507;SDS011;32223;53.654;10.014;2023-03-01T12:37:12;6.82;;;3.67;;
46507;SDS011;32223;53.654;10.014;2023-03-01T12:45:50;8.20;;;4.82;;
46507;SDS011;32223;53.654;10.014;2023-03-01T12:51:14;6.28;;;3.72;;
46507;SDS011;32223;53.654;10.014;2023-03-01T12:53:46;6.30;;;3.60;;
46507;SDS011;32223;53.654;10.014;2023-03-01T12:56:15;5.80;;;3.22;;
46507;SDS011;32223;53.654;10.014;2023-03-01T13:14:59;5.18;;;3.38;;
46507;SDS011;32223;53.654;10.014;2023-03-01T13:17:32;5.50;;;3.05;;
46507;SDS011;32223;53.654;10.014;2023-03-01T13:20:11;4.75;;;3.40;;
46507;SDS011;32223;53.654;10.014;2023-03-01T13:22:38;4.70;;;3.10;;
46507;SDS011;32223;53.654;10.014;2023-03-01T13:25:13;9.20;;;3.83;;
46507;SDS011;32223;53.654;10.014;2023-03-01T13:27:44;5.50;;;3.40;;
46507;SDS011;32223;53.654;10.014;2023-03-01T13:35:56;4.82;;;2.30;;
46507;SDS011;32223;53.654;10.014;2023-03-01T13:38:36;4.97;;;2.90;;
46507;SDS011;32223;53.654;10.014;2023-03-01T13:41:06;5.15;;;2.72;;
46507;SDS011;32223;53.654;10.014;2023-03-01T13:43:36;6.32;;;2.80;;
46507;SDS011;32223;53.654;10.014;2023-03-01T13:46:10;4.57;;;2.70;;
46507;SDS011;32223;53.654;10.014;2023-03-01T13:48:45;3.80;;;2.40;;
46507;SDS011;32223;53.654;10.014;2023-03-01T13:51:20;5.15;;;3.08;;
46507;SDS011;32223;53.654;10.014;2023-03-01T13:53:55;3.63;;;2.60;;
46507;SDS011;32223;53.654;10.014;2023-03-01T13:56:27;4.72;;;2.92;;
46507;SDS011;32223;53.654;10.014;2023-03-01T13:58:59;4.63;;;2.83;;
46507;SDS011;32223;53.654;10.014;2023-03-01T14:01:34;6.10;;;2.97;;
46507;SDS011;32223;53.654;10.014;2023-03-01T14:04:02;5.78;;;3.00;;
46507;SDS011;32223;53.654;10.014;2023-03-01T14:06:42;3.83;;;2.85;;
46507;SDS011;32223;53.654;10.014;2023-03-01T14:20:25;7.40;;;3.25;;
46507;SDS011;32223;53.654;10.014;2023-03-01T14:22:53;4.80;;;2.70;;
46507;SDS011;32223;53.654;10.014;2023-03-01T14:25:22;5.10;;;3.53;;
46507;SDS011;32223;53.654;10.014;2023-03-01T14:27:58;6.03;;;3.15;;
46507;SDS011;32223;53.654;10.014;2023-03-01T14:30:37;6.10;;;3.65;;
46507;SDS011;32223;53.654;10.014;2023-03-01T14:33:15;6.18;;;3.67;;
46507;SDS011;32223;53.654;10.014;2023-03-01T14:36:02;5.22;;;3.20;;
46507;SDS011;32223;53.654;10.014;2023-03-01T14:38:36;5.20;;;3.90;;
46507;SDS011;32223;53.654;10.014;2023-03-01T14:41:11;24.83;;;4.55;;
46507;SDS011;32223;53.654;10.014;2023-03-01T14:43:44;5.28;;;3.45;;
46507;SDS011;32223;53.654;10.014;2023-03-01T14:46:19;5.63;;;3.55;;
46507;SDS011;32223;53.654;10.014;2023-03-01T14:48:49;5.28;;;3.03;;
46507;SDS011;32223;53.654;10.014;2023-03-01T14:51:20;6.78;;;4.18;;
46507;SDS011;32223;53.654;10.014;2023-03-01T14:53:46;4.38;;;3.25;;
46507;SDS011;32223;53.654;10.014;2023-03-01T14:56:13;5.07;;;3.42;;
46507;SDS011;32223;53.654;10.014;2023-03-01T14:58:40;4.70;;;2.70;;
46507;SDS011;32223;53.654;10.014;2023-03-01T15:01:05;3.55;;;2.38;;
46507;SDS011;32223;53.654;10.014;2023-03-01T15:03:46;4.00;;;2.95;;
46507;SDS011;32223;53.654;10.014;2023-03-01T15:06:20;3.30;;;2.25;;
46507;SDS011;32223;53.654;10.014;2023-03-01T15:08:48;4.05;;;2.55;;
46507;SDS011;32223;53.654;10.014;2023-03-01T15:11:23;4.13;;;2.30;;
46507;SDS011;32223;53.654;10.014;2023-03-01T15:13:54;4.57;;;3.10;;
46507;SDS011;32223;53.654;10.014;2023-03-01T15:16:24;4.95;;;3.00;;
46507;SDS011;32223;53.654;10.014;2023-03-01T15:21:37;4.35;;;2.75;;
46507;SDS011;32223;53.654;10.014;2023-03-01T15:24:08;6.32;;;2.80;;
46507;SDS011;32223;53.654;10.014;2023-03-01T15:26:45;5.07;;;2.60;;
46507;SDS011;32223;53.654;10.014;2023-03-01T15:29:27;4.45;;;2.70;;
46507;SDS011;32223;53.654;10.014;2023-03-01T15:31:56;5.55;;;2.85;;
46507;SDS011;32223;53.654;10.014;2023-03-01T15:34:38;5.05;;;2.42;;
46507;SDS011;32223;53.654;10.014;2023-03-01T15:37:05;5.55;;;3.35;;
46507;SDS011;32223;53.654;10.014;2023-03-01T15:39:56;4.95;;;3.30;;
46507;SDS011;32223;53.654;10.014;2023-03-01T15:45:06;4.15;;;2.88;;
46507;SDS011;32223;53.654;10.014;2023-03-01T15:47:34;5.35;;;3.20;;
46507;SDS011;32223;53.654;10.014;2023-03-01T15:50:05;5.25;;;3.50;;
46507;SDS011;32223;53.654;10.014;2023-03-01T15:52:41;7.00;;;4.35;;
46507;SDS011;32223;53.654;10.014;2023-03-01T15:55:20;6.97;;;4.22;;
46507;SDS011;32223;53.654;10.014;2023-03-01T15:58:12;7.82;;;4.28;;
46507;SDS011;32223;53.654;10.014;2023-03-01T16:00:39;6.85;;;4.22;;
46507;SDS011;32223;53.654;10.014;2023-03-01T16:03:05;8.30;;;5.40;;
46507;SDS011;32223;53.654;10.014;2023-03-01T16:05:34;8.45;;;4.88;;
46507;SDS011;32223;53.654;10.014;2023-03-01T16:08:01;8.75;;;4.82;;
46507;SDS011;32223;53.654;10.014;2023-03-01T16:10:27;8.20;;;4.72;;
46507;SDS011;32223;53.654;10.014;2023-03-01T16:12:53;7.38;;;4.05;;
46507;SDS011;32223;53.654;10.014;2023-03-01T16:15:20;8.93;;;5.50;;
46507;SDS011;32223;53.654;10.014;2023-03-01T16:17:48;11.10;;;5.22;;
46507;SDS011;32223;53.654;10.014;2023-03-01T16:20:14;9.40;;;5.50;;
46507;SDS011;32223;53.654;10.014;2023-03-01T16:22:43;10.32;;;6.22;;
46507;SDS011;32223;53.654;10.014;2023-03-01T16:25:10;10.35;;;6.03;;
46507;SDS011;32223;53.654;10.014;2023-03-01T16:27:38;12.18;;;6.30;;
46507;SDS011;32223;53.654;10.014;2023-03-01T16:30:06;12.27;;;6.28;;
46507;SDS011;32223;53.654;10.014;2023-03-01T16:32:32;10.45;;;5.75;;